Time;durP1;ratioP1;P1;durP2;ratioP2;P2;SDS_P1;SDS_P2;PMS_P1;PMS_P2;Temp;Humidity;BMP_temperature;BMP_pressure;BME280_temperature;BME280_humidity;BME280_pressure;Samples;Min_cycle;Max_cycle;Signal;HPM_P1;HPM_P2
2022/07/22 00:01:19;;;;;;;13.93;9.00;;;;;;;;;;5027222;28;20553;-54
2022/07/22 00:03:45;;;;;;;9.55;7.70;;;;;;;;;;5028080;28;20021;-54
2022/07/22 00:06:11;;;;;;;10.50;7.85;;;;;;;;;;5029391;28;20037;-54
2022/07/22 00:08:37;;;;;;;11.43;7.57;;;;;;;;;;5030392;28;20026;-56
2022/07/22 00:11:04;;;;;;;11.50;9.00;;;;;;;;;;5022646;28;20025;-56
2022/07/22 00:13:29;;;;;;;13.65;9.10;;;;;;;;;;5020217;28;20541;-53
2022/07/22 00:15:55;;;;;;;12.02;9.10;;;;;;;;;;5029845;28;20079;-56
2022/07/22 00:18:21;;;;;;;11.90;8.85;;;;;;;;;;5022565;28;20488;-56
2022/07/22 00:20:47;;;;;;;11.57;8.77;;;;;;;;;;5022591;28;20433;-54
2022/07/22 00:23:13;;;;;;;11.48;8.52;;;;;;;;;;5030870;28;20029;-56
2022/07/22 00:25:39;;;;;;;11.10;8.35;;;;;;;;;;5030021;28;20045;-56
2022/07/22 00:28:05;;;;;;;10.00;7.47;;;;;;;;;;5027591;28;20052;-55
2022/07/22 00:30:31;;;;;;;13.60;7.40;;;;;;;;;;5023090;28;20037;-55
2022/07/22 00:32:57;;;;;;;10.50;6.65;;;;;;;;;;5016967;28;20030;-56
2022/07/22 00:35:23;;;;;;;8.32;6.53;;;;;;;;;;5025005;28;20041;-54
2022/07/22 00:37:49;;;;;;;9.55;7.20;;;;;;;;;;5024340;28;20111;-55
2022/07/22 00:40:15;;;;;;;7.80;5.75;;;;;;;;;;5022950;28;20120;-55
2022/07/22 00:42:41;;;;;;;8.05;5.95;;;;;;;;;;5029913;28;20021;-54
2022/07/22 00:45:08;;;;;;;8.15;5.72;;;;;;;;;;5020415;28;20105;-55
2022/07/22 00:47:33;;;;;;;8.02;6.38;;;;;;;;;;5019577;28;20025;-54
2022/07/22 00:50:00;;;;;;;8.13;5.97;;;;;;;;;;5016986;28;20045;-56
2022/07/22 00:52:26;;;;;;;8.43;5.88;;;;;;;;;;5028246;28;20511;-55
2022/07/22 00:54:52;;;;;;;12.13;6.07;;;;;;;;;;5026670;28;20260;-56
2022/07/22 00:57:18;;;;;;;7.47;5.50;;;;;;;;;;5019740;28;20133;-56
2022/07/22 00:59:44;;;;;;;8.18;6.15;;;;;;;;;;5035101;28;20033;-53
2022/07/22 01:02:10;;;;;;;8.10;6.13;;;;;;;;;;5024353;28;20037;-56
2022/07/22 01:04:36;;;;;;;7.32;5.65;;;;;;;;;;5027042;28;20021;-56
2022/07/22 01:07:03;;;;;;;7.65;4.97;;;;;;;;;;5018339;28;20240;-56
2022/07/22 01:09:29;;;;;;;6.70;4.93;;;;;;;;;;5025661;28;20087;-56
2022/07/22 01:11:55;;;;;;;9.10;5.80;;;;;;;;;;5027805;28;20030;-56
2022/07/22 01:14:21;;;;;;;7.60;5.70;;;;;;;;;;5025907;28;20033;-56
2022/07/22 01:16:47;;;;;;;6.68;5.53;;;;;;;;;;5020862;28;20087;-57
2022/07/22 01:19:13;;;;;;;8.82;5.65;;;;;;;;;;5022618;28;20362;-54
2022/07/22 01:21:39;;;;;;;7.32;5.80;;;;;;;;;;5021834;28;20026;-55
2022/07/22 01:24:05;;;;;;;6.03;4.93;;;;;;;;;;5016388;28;20050;-55
2022/07/22 01:26:33;;;;;;;9.55;6.05;;;;;;;;;;5022849;28;20056;-55
2022/07/22 01:28:59;;;;;;;7.28;5.47;;;;;;;;;;5027347;28;20052;-56
2022/07/22 01:31:25;;;;;;;6.68;4.90;;;;;;;;;;5013665;28;20030;-56
2022/07/22 01:33:51;;;;;;;7.75;5.03;;;;;;;;;;5014729;28;20079;-56
2022/07/22 01:36:17;;;;;;;6.80;5.10;;;;;;;;;;5014154;28;20057;-54
2022/07/22 01:38:43;;;;;;;8.82;6.00;;;;;;;;;;5023235;28;20087;-56
2022/07/22 01:41:10;;;;;;;9.10;5.88;;;;;;;;;;5025897;28;20025;-55
2022/07/22 01:43:36;;;;;;;8.55;5.93;;;;;;;;;;5028731;28;20491;-56
2022/07/22 01:46:02;;;;;;;7.50;5.80;;;;;;;;;;5025596;28;20057;-55
2022/07/22 01:48:28;;;;;;;6.65;5.47;;;;;;;;;;5023156;28;20030;-55
2022/07/22 01:50:54;;;;;;;8.20;5.78;;;;;;;;;;5022322;28;20444;-56
2022/07/22 01:53:20;;;;;;;6.18;4.90;;;;;;;;;;5021734;28;20088;-56
2022/07/22 01:55:46;;;;;;;7.57;5.80;;;;;;;;;;5028856;28;20678;-55
2022/07/22 01:58:12;;;;;;;6.50;5.18;;;;;;;;;;5024270;28;20049;-55
2022/07/22 02:00:38;;;;;;;6.43;5.30;;;;;;;;;;5026250;28;20060;-55
2022/07/22 02:03:05;;;;;;;6.95;4.88;;;;;;;;;;5025614;28;20026;-56
2022/07/22 02:05:31;;;;;;;6.85;5.57;;;;;;;;;;5025679;28;20018;-55
2022/07/22 02:08:00;;;;;;;8.63;5.60;;;;;;;;;;5024572;28;21193;-54
2022/07/22 02:10:26;;;;;;;8.43;5.28;;;;;;;;;;5021876;28;20112;-55
2022/07/22 02:12:52;;;;;;;8.85;6.10;;;;;;;;;;5030318;28;20412;-55
2022/07/22 02:15:18;;;;;;;7.28;6.13;;;;;;;;;;5026256;28;20092;-55
2022/07/22 02:17:44;;;;;;;9.20;6.53;;;;;;;;;;5032150;28;20021;-55
2022/07/22 02:20:10;;;;;;;9.15;5.93;;;;;;;;;;5025999;28;20030;-54
2022/07/22 02:22:36;;;;;;;9.18;6.20;;;;;;;;;;5029158;28;20036;-56
2022/07/22 02:25:02;;;;;;;9.48;6.53;;;;;;;;;;5033870;28;20393;-56
2022/07/22 02:27:28;;;;;;;8.05;6.18;;;;;;;;;;5029975;28;20478;-55
2022/07/22 02:29:54;;;;;;;11.20;6.82;;;;;;;;;;5030229;28;20034;-56
2022/07/22 02:32:20;;;;;;;8.15;6.38;;;;;;;;;;5030374;28;20176;-56
2022/07/22 02:34:46;;;;;;;10.35;6.60;;;;;;;;;;5033203;28;20036;-55
2022/07/22 02:37:12;;;;;;;8.07;6.20;;;;;;;;;;5031969;28;20037;-56
2022/07/22 02:39:38;;;;;;;9.88;6.20;;;;;;;;;;5026986;28;20112;-56
2022/07/22 02:42:04;;;;;;;7.70;6.22;;;;;;;;;;5023860;28;20389;-56
2022/07/22 02:44:30;;;;;;;9.40;6.70;;;;;;;;;;5025660;28;20022;-56
2022/07/22 02:46:56;;;;;;;7.65;6.22;;;;;;;;;;5022766;28;20033;-54
2022/07/22 02:49:22;;;;;;;10.60;6.65;;;;;;;;;;5019472;28;20163;-55
2022/07/22 02:51:48;;;;;;;8.10;6.30;;;;;;;;;;5031596;28;20041;-56
2022/07/22 02:54:14;;;;;;;10.18;6.97;;;;;;;;;;5032501;28;20550;-57
2022/07/22 02:56:40;;;;;;;9.93;6.70;;;;;;;;;;5022144;28;20533;-55
2022/07/22 02:59:06;;;;;;;9.45;7.45;;;;;;;;;;5028208;28;20076;-56
2022/07/22 03:01:32;;;;;;;8.52;7.38;;;;;;;;;;5024564;28;20405;-55
2022/07/22 03:03:58;;;;;;;13.18;7.57;;;;;;;;;;5028193;28;20029;-56
2022/07/22 03:06:24;;;;;;;9.18;6.93;;;;;;;;;;5028546;28;20025;-56
2022/07/22 03:08:50;;;;;;;9.30;7.22;;;;;;;;;;5029719;28;20100;-56
2022/07/22 03:11:16;;;;;;;11.10;6.88;;;;;;;;;;5024443;28;20052;-54
2022/07/22 03:13:42;;;;;;;9.35;7.60;;;;;;;;;;5026942;28;20026;-56
2022/07/22 03:16:08;;;;;;;8.50;6.93;;;;;;;;;;5025182;28;20029;-54
2022/07/22 03:18:34;;;;;;;11.52;7.78;;;;;;;;;;5021861;28;20037;-55
2022/07/22 03:21:00;;;;;;;12.95;7.72;;;;;;;;;;5027126;28;20096;-55
2022/07/22 03:23:26;;;;;;;10.73;7.65;;;;;;;;;;5041384;28;20029;-56
2022/07/22 03:25:52;;;;;;;9.38;7.38;;;;;;;;;;5023982;28;20037;-57
2022/07/22 03:28:18;;;;;;;13.25;7.60;;;;;;;;;;5031660;28;20029;-56
2022/07/22 03:30:44;;;;;;;9.63;7.45;;;;;;;;;;5020884;28;20410;-57
2022/07/22 03:33:10;;;;;;;11.32;8.52;;;;;;;;;;5022920;28;20025;-55
2022/07/22 03:35:36;;;;;;;11.20;8.02;;;;;;;;;;5029427;28;20029;-54
2022/07/22 03:38:03;;;;;;;9.80;7.40;;;;;;;;;;5026711;28;20030;-56
2022/07/22 03:40:29;;;;;;;14.18;8.50;;;;;;;;;;5025578;28;21860;-57
2022/07/22 03:42:55;;;;;;;12.88;8.02;;;;;;;;;;5019163;28;20484;-55
2022/07/22 03:45:21;;;;;;;10.70;8.15;;;;;;;;;;5032065;28;20025;-55
2022/07/22 03:47:47;;;;;;;10.05;7.93;;;;;;;;;;5014679;28;20064;-53
2022/07/22 03:50:13;;;;;;;10.63;7.38;;;;;;;;;;5013772;28;20041;-56
2022/07/22 03:52:39;;;;;;;10.32;8.07;;;;;;;;;;5024827;28;20108;-56
2022/07/22 03:55:05;;;;;;;10.98;9.05;;;;;;;;;;5031843;28;20032;-56
2022/07/22 03:57:31;;;;;;;11.07;9.40;;;;;;;;;;5027055;28;20041;-55
2022/07/22 03:59:57;;;;;;;11.18;8.02;;;;;;;;;;5026040;28;20555;-56
2022/07/22 04:02:23;;;;;;;12.38;8.90;;;;;;;;;;5025733;28;20393;-56
2022/07/22 04:04:49;;;;;;;15.13;9.45;;;;;;;;;;5023926;28;20018;-54
2022/07/22 04:07:15;;;;;;;12.18;9.73;;;;;;;;;;5029828;28;20112;-54
2022/07/22 04:09:41;;;;;;;12.60;9.60;;;;;;;;;;5029633;28;20445;-57
2022/07/22 04:12:07;;;;;;;13.48;10.02;;;;;;;;;;5031332;28;20041;-56
2022/07/22 04:14:33;;;;;;;13.38;9.70;;;;;;;;;;5020077;28;20112;-56
2022/07/22 04:16:59;;;;;;;13.18;10.05;;;;;;;;;;5023809;28;20029;-55
2022/07/22 04:19:25;;;;;;;13.63;9.82;;;;;;;;;;5028191;28;20036;-56
2022/07/22 04:21:51;;;;;;;16.42;11.15;;;;;;;;;;5024911;28;20086;-54
2022/07/22 04:24:17;;;;;;;11.43;8.52;;;;;;;;;;5026592;28;20025;-57
2022/07/22 04:26:43;;;;;;;11.13;9.15;;;;;;;;;;5014881;28;20373;-54
2022/07/22 04:29:09;;;;;;;11.05;8.68;;;;;;;;;;5009869;28;20040;-55
2022/07/22 04:31:35;;;;;;;13.27;9.75;;;;;;;;;;5016128;28;20038;-56
2022/07/22 04:34:01;;;;;;;13.40;10.55;;;;;;;;;;5028255;28;20040;-56
2022/07/22 04:36:27;;;;;;;14.02;10.13;;;;;;;;;;5035898;28;20026;-55
2022/07/22 04:38:53;;;;;;;14.63;10.52;;;;;;;;;;5030841;28;20057;-57
2022/07/22 04:41:19;;;;;;;16.23;10.98;;;;;;;;;;5025362;28;20021;-56
2022/07/22 04:43:45;;;;;;;14.07;10.65;;;;;;;;;;5017221;28;20056;-56
2022/07/22 04:46:11;;;;;;;19.58;10.68;;;;;;;;;;5013725;28;20473;-57
2022/07/22 04:48:37;;;;;;;13.38;10.48;;;;;;;;;;5015251;28;20025;-58
2022/07/22 04:51:03;;;;;;;17.25;11.65;;;;;;;;;;5016943;28;20040;-55
2022/07/22 04:53:29;;;;;;;13.05;9.73;;;;;;;;;;5021598;28;20033;-57
2022/07/22 04:55:55;;;;;;;12.88;9.80;;;;;;;;;;5023487;28;20036;-56
2022/07/22 04:58:21;;;;;;;14.10;10.75;;;;;;;;;;5027864;28;20497;-56
2022/07/22 05:00:47;;;;;;;13.32;10.00;;;;;;;;;;5022926;28;20120;-56
2022/07/22 05:03:13;;;;;;;16.00;11.65;;;;;;;;;;5022457;28;20029;-55
2022/07/22 05:05:39;;;;;;;16.80;11.13;;;;;;;;;;5019788;28;20029;-56
2022/07/22 05:08:05;;;;;;;14.70;10.77;;;;;;;;;;5027617;28;20083;-55
2022/07/22 05:10:32;;;;;;;21.55;11.63;;;;;;;;;;5019258;28;21183;-55
2022/07/22 05:12:58;;;;;;;15.60;11.15;;;;;;;;;;5017101;28;20034;-56
2022/07/22 05:15:24;;;;;;;16.65;11.70;;;;;;;;;;5025329;28;20036;-56
2022/07/22 05:17:50;;;;;;;14.07;9.95;;;;;;;;;;5017322;28;20130;-56
2022/07/22 05:20:16;;;;;;;13.30;10.82;;;;;;;;;;5027688;28;20528;-56
2022/07/22 05:22:42;;;;;;;14.23;10.50;;;;;;;;;;5025731;28;20029;-55
2022/07/22 05:25:08;;;;;;;12.93;10.60;;;;;;;;;;5025417;28;20496;-55
2022/07/22 05:27:35;;;;;;;14.00;10.65;;;;;;;;;;5027582;28;20033;-56
2022/07/22 05:30:01;;;;;;;13.77;11.10;;;;;;;;;;5021472;28;20064;-55
2022/07/22 05:32:27;;;;;;;14.70;10.75;;;;;;;;;;5013867;28;20037;-56
2022/07/22 05:34:53;;;;;;;16.42;11.15;;;;;;;;;;5018625;28;20033;-55
2022/07/22 05:37:19;;;;;;;13.38;9.77;;;;;;;;;;5027467;28;20068;-56
2022/07/22 05:39:45;;;;;;;13.95;10.15;;;;;;;;;;5028002;28;20072;-56
2022/07/22 05:42:11;;;;;;;13.88;9.38;;;;;;;;;;5033073;28;20464;-57
2022/07/22 05:44:36;;;;;;;14.38;11.13;;;;;;;;;;5020443;28;20025;-57
2022/07/22 05:47:02;;;;;;;11.95;9.32;;;;;;;;;;5033849;28;20038;-57
2022/07/22 05:49:28;;;;;;;11.50;9.52;;;;;;;;;;5024716;28;20029;-57
2022/07/22 05:51:57;;;;;;;13.93;10.48;;;;;;;;;;5028749;28;20080;-57
2022/07/22 05:54:23;;;;;;;12.27;10.00;;;;;;;;;;5030719;28;20026;-56
2022/07/22 05:56:49;;;;;;;13.75;10.85;;;;;;;;;;5028011;28;20037;-57
2022/07/22 05:59:16;;;;;;;14.70;10.18;;;;;;;;;;5031312;28;20041;-57
2022/07/22 06:01:42;;;;;;;15.05;10.35;;;;;;;;;;5027127;28;20025;-56
2022/07/22 06:04:08;;;;;;;15.18;10.73;;;;;;;;;;5020657;28;20474;-56
2022/07/22 06:06:34;;;;;;;12.27;9.40;;;;;;;;;;5026747;28;20398;-56
2022/07/22 06:09:00;;;;;;;15.30;10.40;;;;;;;;;;5029934;28;20105;-57
2022/07/22 06:11:26;;;;;;;11.77;9.43;;;;;;;;;;5032520;28;20024;-57
2022/07/22 06:13:53;;;;;;;13.32;9.95;;;;;;;;;;5032042;28;20068;-56
2022/07/22 06:16:19;;;;;;;12.38;9.93;;;;;;;;;;5031020;28;20112;-56
2022/07/22 06:18:45;;;;;;;13.27;9.68;;;;;;;;;;5023295;28;20471;-57
2022/07/22 06:21:11;;;;;;;13.52;9.35;;;;;;;;;;5027533;28;20041;-57
2022/07/22 06:23:37;;;;;;;14.07;10.15;;;;;;;;;;5032182;28;20021;-57
2022/07/22 06:26:03;;;;;;;12.57;9.73;;;;;;;;;;5028695;28;20112;-56
2022/07/22 06:28:29;;;;;;;12.55;9.85;;;;;;;;;;5024918;28;20056;-55
2022/07/22 06:30:55;;;;;;;14.73;10.30;;;;;;;;;;5029494;28;20108;-56
2022/07/22 06:33:21;;;;;;;14.02;10.18;;;;;;;;;;5024223;28;20389;-56
2022/07/22 06:35:47;;;;;;;15.38;10.63;;;;;;;;;;5019469;28;20108;-56
2022/07/22 06:38:13;;;;;;;17.83;11.57;;;;;;;;;;5029155;28;20030;-56
2022/07/22 06:40:39;;;;;;;12.98;9.07;;;;;;;;;;5027881;28;20069;-56
2022/07/22 06:43:04;;;;;;;13.15;10.18;;;;;;;;;;5023817;28;20033;-56
2022/07/22 06:45:31;;;;;;;10.02;8.00;;;;;;;;;;5021942;28;20088;-57
2022/07/22 06:47:57;;;;;;;13.27;9.43;;;;;;;;;;5027674;28;20030;-56
2022/07/22 06:50:23;;;;;;;10.15;8.52;;;;;;;;;;5021198;28;20026;-57
2022/07/22 06:52:49;;;;;;;11.75;8.95;;;;;;;;;;5017128;28;20588;-56
2022/07/22 06:55:16;;;;;;;10.82;9.07;;;;;;;;;;5026184;28;20485;-56
2022/07/22 06:57:42;;;;;;;10.73;8.18;;;;;;;;;;5024050;28;20045;-57
2022/07/22 07:00:08;;;;;;;13.60;8.98;;;;;;;;;;5027905;28;20646;-56
2022/07/22 07:02:35;;;;;;;10.02;8.07;;;;;;;;;;5018570;28;20026;-57
2022/07/22 07:05:01;;;;;;;10.90;8.18;;;;;;;;;;5030791;28;20029;-56
2022/07/22 07:07:27;;;;;;;12.73;9.52;;;;;;;;;;5022744;28;20107;-57
2022/07/22 07:09:53;;;;;;;11.05;8.40;;;;;;;;;;5029872;28;20060;-57
2022/07/22 07:12:19;;;;;;;11.35;8.23;;;;;;;;;;5027875;28;20029;-56
2022/07/22 07:14:45;;;;;;;12.98;8.35;;;;;;;;;;5029634;28;20507;-57
2022/07/22 07:17:11;;;;;;;12.23;7.35;;;;;;;;;;5028854;28;20057;-57
2022/07/22 07:19:37;;;;;;;11.02;7.32;;;;;;;;;;5023918;28;20373;-57
2022/07/22 07:22:03;;;;;;;10.13;7.45;;;;;;;;;;5031216;28;20036;-57
2022/07/22 07:24:28;;;;;;;10.48;7.30;;;;;;;;;;5024697;28;20088;-57
2022/07/22 07:26:55;;;;;;;11.90;7.93;;;;;;;;;;5025914;28;20136;-56
2022/07/22 07:29:22;;;;;;;8.85;5.93;;;;;;;;;;5027220;28;20029;-58
2022/07/22 07:31:48;;;;;;;8.30;5.68;;;;;;;;;;5029474;28;20056;-57
2022/07/22 07:34:14;;;;;;;9.50;5.85;;;;;;;;;;5024771;28;20477;-57
2022/07/22 07:36:40;;;;;;;7.75;5.70;;;;;;;;;;5028071;28;20100;-58
2022/07/22 07:39:06;;;;;;;7.53;5.80;;;;;;;;;;5029724;28;20042;-57
2022/07/22 07:41:32;;;;;;;9.10;5.57;;;;;;;;;;5025085;28;20037;-57
2022/07/22 07:43:58;;;;;;;7.22;4.80;;;;;;;;;;5019905;28;20548;-56
2022/07/22 07:46:24;;;;;;;8.45;5.15;;;;;;;;;;5030234;28;20021;-58
2022/07/22 07:48:50;;;;;;;6.07;4.90;;;;;;;;;;5030883;28;20837;-57
2022/07/22 07:51:16;;;;;;;5.65;4.55;;;;;;;;;;5031045;28;20026;-57
2022/07/22 07:53:42;;;;;;;5.65;4.88;;;;;;;;;;5031545;28;20028;-57
2022/07/22 07:56:08;;;;;;;5.60;4.40;;;;;;;;;;5029898;28;20026;-56
2022/07/22 07:58:34;;;;;;;5.10;4.00;;;;;;;;;;5029918;28;20032;-58
2022/07/22 08:01:00;;;;;;;6.63;5.22;;;;;;;;;;5024091;28;20394;-58
2022/07/22 08:03:26;;;;;;;6.97;4.72;;;;;;;;;;5029751;28;20021;-58
2022/07/22 08:05:52;;;;;;;6.78;4.53;;;;;;;;;;5023262;28;20091;-58
2022/07/22 08:08:18;;;;;;;6.28;5.13;;;;;;;;;;5030894;28;20024;-58
2022/07/22 08:10:44;;;;;;;5.25;4.40;;;;;;;;;;5027439;28;20040;-56
2022/07/22 08:13:10;;;;;;;6.05;3.83;;;;;;;;;;5022156;28;20033;-57
2022/07/22 08:15:36;;;;;;;7.50;4.30;;;;;;;;;;5029981;28;20026;-57
2022/07/22 08:18:02;;;;;;;5.13;4.00;;;;;;;;;;5029680;28;20029;-57
2022/07/22 08:20:28;;;;;;;4.22;3.58;;;;;;;;;;5023456;28;20040;-58
2022/07/22 08:22:54;;;;;;;5.57;3.80;;;;;;;;;;5028057;28;20547;-58
2022/07/22 08:25:21;;;;;;;5.97;4.53;;;;;;;;;;5030735;28;20026;-57
2022/07/22 08:27:47;;;;;;;5.85;3.90;;;;;;;;;;5038399;28;20021;-57
2022/07/22 08:30:13;;;;;;;5.32;3.85;;;;;;;;;;5022758;28;20072;-57
2022/07/22 08:32:39;;;;;;;7.03;3.90;;;;;;;;;;5020589;28;20052;-56
2022/07/22 08:35:05;;;;;;;5.70;3.63;;;;;;;;;;5025817;28;20103;-57
2022/07/22 08:37:31;;;;;;;5.47;3.35;;;;;;;;;;5029939;28;20499;-57
2022/07/22 08:39:58;;;;;;;6.07;3.97;;;;;;;;;;5024381;28;20033;-56
2022/07/22 08:42:24;;;;;;;4.35;3.55;;;;;;;;;;5031146;28;20502;-57
2022/07/22 08:44:50;;;;;;;5.72;3.50;;;;;;;;;;5030786;28;20018;-56
2022/07/22 08:47:21;;;;;;;4.05;3.05;;;;;;;;;;5018903;28;20075;-56
2022/07/22 08:49:47;;;;;;;4.85;3.15;;;;;;;;;;5024970;28;20500;-57
2022/07/22 08:52:13;;;;;;;5.60;2.88;;;;;;;;;;5013765;28;20095;-57
2022/07/22 08:54:39;;;;;;;3.33;2.50;;;;;;;;;;5025117;28;20040;-57
2022/07/22 08:57:05;;;;;;;4.85;2.25;;;;;;;;;;5029839;28;20635;-57
2022/07/22 08:59:31;;;;;;;3.72;2.50;;;;;;;;;;5027373;28;20116;-54
2022/07/22 09:02:07;;;;;;;3.00;2.70;;;;;;;;;;5029157;28;20343;-57
2022/07/22 09:04:49;;;;;;;3.15;2.60;;;;;;;;;;5023063;28;20048;-53
2022/07/22 09:07:23;;;;;;;3.58;2.10;;;;;;;;;;5021003;28;20114;-56
2022/07/22 09:09:50;;;;;;;3.35;2.10;;;;;;;;;;5029936;28;20025;-57
2022/07/22 09:12:16;;;;;;;3.65;2.33;;;;;;;;;;5033238;28;20025;-54
2022/07/22 09:14:50;;;;;;;2.83;2.40;;;;;;;;;;5037350;28;20032;-56
2022/07/22 09:17:48;;;;;;;2.58;2.38;;;;;;;;;;5034771;28;20037;-56
2022/07/22 09:20:18;;;;;;;3.38;2.20;;;;;;;;;;4999058;28;20056;-57
2022/07/22 09:22:45;;;;;;;2.88;2.67;;;;;;;;;;5033406;28;20022;-56
2022/07/22 09:25:20;;;;;;;3.65;2.15;;;;;;;;;;5031279;28;20033;-57
2022/07/22 09:27:46;;;;;;;3.20;1.98;;;;;;;;;;5032687;28;20477;-56
2022/07/22 09:30:14;;;;;;;1.45;1.30;;;;;;;;;;5031139;28;20124;-57
2022/07/22 09:32:41;;;;;;;2.00;1.73;;;;;;;;;;5033700;28;20022;-56
2022/07/22 09:35:07;;;;;;;2.03;1.55;;;;;;;;;;5032031;28;20033;-57
2022/07/22 09:37:33;;;;;;;2.80;2.00;;;;;;;;;;5037572;28;20540;-56
2022/07/22 09:40:13;;;;;;;3.42;2.13;;;;;;;;;;5032258;28;20033;-57
2022/07/22 09:42:46;;;;;;;2.50;2.30;;;;;;;;;;5034785;28;20029;-56
2022/07/22 09:45:12;;;;;;;2.65;2.38;;;;;;;;;;5036117;28;20401;-57
2022/07/22 09:47:41;;;;;;;2.45;2.20;;;;;;;;;;5039589;28;20024;-58
2022/07/22 09:50:14;;;;;;;4.28;2.60;;;;;;;;;;5034481;28;20029;-57
2022/07/22 09:52:42;;;;;;;4.90;2.70;;;;;;;;;;5032107;28;20489;-57
2022/07/22 09:55:08;;;;;;;5.82;3.10;;;;;;;;;;5035427;28;20530;-57
2022/07/22 09:57:34;;;;;;;3.00;2.70;;;;;;;;;;5031439;28;20050;-58
2022/07/22 10:00:00;;;;;;;3.10;2.80;;;;;;;;;;5033301;28;20041;-57
2022/07/22 10:02:28;;;;;;;3.45;2.72;;;;;;;;;;5033550;28;20025;-57
2022/07/22 10:04:56;;;;;;;4.63;2.90;;;;;;;;;;5028350;28;20132;-56
2022/07/22 10:07:23;;;;;;;2.63;2.33;;;;;;;;;;5032033;28;20029;-57
2022/07/22 10:09:49;;;;;;;2.80;2.17;;;;;;;;;;5030558;28;20587;-56
2022/07/22 10:12:15;;;;;;;2.95;2.40;;;;;;;;;;5030296;28;20048;-57
2022/07/22 10:14:42;;;;;;;4.95;2.70;;;;;;;;;;5029578;28;20040;-57
2022/07/22 10:17:08;;;;;;;4.03;2.70;;;;;;;;;;5031412;28;20029;-57
2022/07/22 10:19:34;;;;;;;2.92;2.28;;;;;;;;;;5029234;28;20054;-56
2022/07/22 10:22:00;;;;;;;3.80;2.30;;;;;;;;;;5029954;28;20385;-56
2022/07/22 10:24:26;;;;;;;2.35;2.05;;;;;;;;;;5019157;28;20025;-56
2022/07/22 10:26:55;;;;;;;2.97;1.73;;;;;;;;;;5031711;28;20071;-57
2022/07/22 10:29:31;;;;;;;2.45;2.25;;;;;;;;;;5024693;28;20566;-58
2022/07/22 10:32:16;;;;;;;2.28;2.08;;;;;;;;;;5019849;28;20032;-56
2022/07/22 10:34:42;;;;;;;2.30;1.90;;;;;;;;;;5031520;28;20041;-55
2022/07/22 10:37:40;;;;;;;4.35;2.28;;;;;;;;;;5031378;28;20537;-57
2022/07/22 10:40:12;;;;;;;5.38;2.15;;;;;;;;;;5032440;28;20060;-59
2022/07/22 10:42:57;;;;;;;9.98;2.83;;;;;;;;;;5030130;28;20481;-58
2022/07/22 10:45:47;;;;;;;4.03;2.47;;;;;;;;;;5031895;28;20021;-56
2022/07/22 10:48:20;;;;;;;4.65;2.60;;;;;;;;;;5025708;28;20040;-57
2022/07/22 10:50:47;;;;;;;2.83;2.53;;;;;;;;;;5029359;28;20035;-56
2022/07/22 10:53:17;;;;;;;3.03;2.40;;;;;;;;;;5025026;28;20033;-56
2022/07/22 10:56:02;;;;;;;2.53;2.10;;;;;;;;;;5034463;28;20036;-57
2022/07/22 10:58:34;;;;;;;2.60;1.95;;;;;;;;;;5034302;28;20034;-57
2022/07/22 11:01:02;;;;;;;3.05;2.50;;;;;;;;;;5030087;28;20079;-57
2022/07/22 11:03:29;;;;;;;3.05;2.33;;;;;;;;;;5034473;28;20109;-59
2022/07/22 11:05:56;;;;;;;3.30;2.50;;;;;;;;;;5029290;28;20056;-57
2022/07/22 11:08:22;;;;;;;3.13;2.00;;;;;;;;;;5031852;28;20501;-57
2022/07/22 11:10:51;;;;;;;2.47;1.83;;;;;;;;;;5021798;28;20610;-57
2022/07/22 11:13:33;;;;;;;3.47;2.10;;;;;;;;;;5028396;28;20037;-57
2022/07/22 11:16:15;;;;;;;6.05;2.50;;;;;;;;;;5024349;28;20043;-55
2022/07/22 11:18:45;;;;;;;2.17;1.92;;;;;;;;;;5027825;28;20029;-57
2022/07/22 11:21:11;;;;;;;2.20;2.00;;;;;;;;;;5028905;28;20037;-58
2022/07/22 11:23:40;;;;;;;3.15;1.60;;;;;;;;;;5030741;28;20160;-57
2022/07/22 11:26:07;;;;;;;2.50;1.80;;;;;;;;;;5028268;28;20021;-58
2022/07/22 11:28:38;;;;;;;2.30;1.80;;;;;;;;;;5026900;28;20030;-57
2022/07/22 11:31:05;;;;;;;4.03;1.90;;;;;;;;;;5020173;28;20029;-56
2022/07/22 11:33:31;;;;;;;2.10;1.80;;;;;;;;;;5034818;28;20525;-57
2022/07/22 11:36:04;;;;;;;2.30;1.90;;;;;;;;;;5025388;28;20048;-58
2022/07/22 11:38:30;;;;;;;;;;;;;;;;;;5041241;28;20033;-58
2022/07/22 11:40:56;;;;;;;2.95;1.85;;;;;;;;;;5029410;28;19951;-57
2022/07/22 11:43:23;;;;;;;3.97;1.90;;;;;;;;;;5029754;28;20488;-58
2022/07/22 11:45:55;;;;;;;2.33;1.60;;;;;;;;;;5030111;28;20032;-56
2022/07/22 11:48:21;;;;;;;1.60;1.50;;;;;;;;;;5023677;28;20033;-57
2022/07/22 11:50:48;;;;;;;2.15;1.90;;;;;;;;;;5031416;28;20923;-57
2022/07/22 11:53:14;;;;;;;2.70;1.65;;;;;;;;;;5030974;28;20489;-56
2022/07/22 11:55:40;;;;;;;2.20;1.52;;;;;;;;;;5027589;28;20033;-56
2022/07/22 11:58:05;;;;;;;2.78;1.92;;;;;;;;;;5030555;28;20056;-57
2022/07/22 12:00:32;;;;;;;1.88;1.70;;;;;;;;;;5033315;28;20029;-57
2022/07/22 12:02:58;;;;;;;1.98;1.48;;;;;;;;;;5032471;28;20381;-57
2022/07/22 12:05:24;;;;;;;1.95;1.60;;;;;;;;;;5026869;28;20393;-57
2022/07/22 12:07:50;;;;;;;1.85;1.50;;;;;;;;;;5027041;28;20028;-55
2022/07/22 12:10:17;;;;;;;2.15;1.60;;;;;;;;;;5027154;28;20116;-57
2022/07/22 12:12:43;;;;;;;1.75;1.40;;;;;;;;;;5029469;28;20033;-57
2022/07/22 12:15:10;;;;;;;5.22;1.40;;;;;;;;;;5026788;28;20103;-57
2022/07/22 12:17:36;;;;;;;1.40;1.00;;;;;;;;;;5027554;28;20030;-56
2022/07/22 12:20:12;;;;;;;1.27;1.13;;;;;;;;;;5024975;28;20490;-57
2022/07/22 12:22:45;;;;;;;1.98;1.10;;;;;;;;;;5028546;28;20537;-57
2022/07/22 12:25:11;;;;;;;3.00;1.40;;;;;;;;;;5023664;28;20049;-58
2022/07/22 12:27:37;;;;;;;1.23;1.02;;;;;;;;;;5031558;28;20022;-57
2022/07/22 12:30:11;;;;;;;3.88;1.30;;;;;;;;;;5021060;28;20037;-58
2022/07/22 12:32:46;;;;;;;2.13;1.20;;;;;;;;;;5029990;28;20490;-57
2022/07/22 12:35:14;;;;;;;3.20;1.00;;;;;;;;;;5028607;28;20041;-57
2022/07/22 12:37:44;;;;;;;1.35;1.15;;;;;;;;;;5016588;28;20034;-57
2022/07/22 12:40:15;;;;;;;1.67;1.00;;;;;;;;;;5030894;28;20489;-57
2022/07/22 12:42:41;;;;;;;1.10;1.00;;;;;;;;;;5031006;28;20117;-57
2022/07/22 12:45:07;;;;;;;1.90;1.23;;;;;;;;;;5032965;28;20029;-57
2022/07/22 12:47:46;;;;;;;1.65;1.00;;;;;;;;;;5025441;28;20034;-57
2022/07/22 12:50:19;;;;;;;1.77;0.90;;;;;;;;;;5027831;28;20057;-57
2022/07/22 12:52:45;;;;;;;2.35;1.00;;;;;;;;;;5027308;28;20457;-58
2022/07/22 12:55:11;;;;;;;1.05;0.85;;;;;;;;;;5028647;28;20025;-57
2022/07/22 12:57:37;;;;;;;4.30;0.90;;;;;;;;;;5030609;28;20052;-58
2022/07/22 13:00:03;;;;;;;6.05;1.10;;;;;;;;;;5031019;28;20524;-57
2022/07/22 13:02:29;;;;;;;1.13;1.00;;;;;;;;;;5027860;28;20029;-56
2022/07/22 13:04:55;;;;;;;0.90;0.80;;;;;;;;;;5026085;28;20052;-57
2022/07/22 13:07:21;;;;;;;3.20;1.00;;;;;;;;;;5026610;28;20087;-59
2022/07/22 13:09:47;;;;;;;3.05;0.93;;;;;;;;;;5027121;28;20040;-57
2022/07/22 13:12:13;;;;;;;3.83;1.00;;;;;;;;;;5022474;28;20044;-57
2022/07/22 13:14:39;;;;;;;1.20;0.90;;;;;;;;;;5021457;28;20029;-58
2022/07/22 13:17:05;;;;;;;0.95;0.80;;;;;;;;;;5018146;28;20045;-57
2022/07/22 13:19:31;;;;;;;1.80;0.90;;;;;;;;;;5018249;28;20033;-58
2022/07/22 13:21:57;;;;;;;0.93;0.73;;;;;;;;;;5027786;28;20461;-58
2022/07/22 13:24:23;;;;;;;1.30;0.93;;;;;;;;;;5021938;28;20033;-58
2022/07/22 13:26:49;;;;;;;0.88;0.77;;;;;;;;;;5020850;28;20022;-58
2022/07/22 13:29:15;;;;;;;4.03;1.00;;;;;;;;;;5020975;28;20055;-57
2022/07/22 13:31:41;;;;;;;0.80;0.70;;;;;;;;;;5026459;28;20022;-56
2022/07/22 13:34:07;;;;;;;1.33;0.93;;;;;;;;;;5024360;28;20087;-57
2022/07/22 13:36:33;;;;;;;3.75;0.88;;;;;;;;;;5028324;28;20034;-58
2022/07/22 13:39:00;;;;;;;1.25;0.70;;;;;;;;;;5029198;28;20488;-58
2022/07/22 13:41:26;;;;;;;2.28;0.60;;;;;;;;;;5020312;28;20076;-56
2022/07/22 13:43:52;;;;;;;2.72;0.55;;;;;;;;;;5022137;28;20492;-58
2022/07/22 13:46:19;;;;;;;6.65;0.80;;;;;;;;;;5018924;28;20026;-58
2022/07/22 13:48:45;;;;;;;1.25;0.50;;;;;;;;;;5020849;28;20022;-58
2022/07/22 13:51:11;;;;;;;1.27;0.65;;;;;;;;;;5027853;28;20112;-57
2022/07/22 13:53:37;;;;;;;2.05;0.77;;;;;;;;;;5026308;28;20060;-57
2022/07/22 13:56:04;;;;;;;0.90;0.60;;;;;;;;;;5026392;28;20037;-57
2022/07/22 13:58:30;;;;;;;0.88;0.68;;;;;;;;;;5022751;28;20041;-57
2022/07/22 14:00:56;;;;;;;1.35;0.57;;;;;;;;;;5027186;28;20037;-56
2022/07/22 14:03:23;;;;;;;2.00;0.60;;;;;;;;;;5016940;28;20021;-58
2022/07/22 14:05:49;;;;;;;0.90;0.60;;;;;;;;;;5025732;28;20412;-58
2022/07/22 14:08:15;;;;;;;1.45;0.43;;;;;;;;;;5029750;28;20497;-58
2022/07/22 14:10:41;;;;;;;0.60;0.35;;;;;;;;;;5027177;28;20033;-57
2022/07/22 14:13:07;;;;;;;1.45;0.70;;;;;;;;;;5026855;28;20519;-57
2022/07/22 14:15:33;;;;;;;2.33;0.70;;;;;;;;;;5022771;28;20036;-57
2022/07/22 14:17:59;;;;;;;0.82;0.52;;;;;;;;;;5030706;28;20155;-57
2022/07/22 14:20:25;;;;;;;0.80;0.55;;;;;;;;;;5029188;28;20100;-58
2022/07/22 14:22:51;;;;;;;2.35;0.40;;;;;;;;;;5028325;28;20026;-58
2022/07/22 14:25:17;;;;;;;0.82;0.30;;;;;;;;;;5029063;28;20448;-57
2022/07/22 14:27:43;;;;;;;0.38;0.30;;;;;;;;;;5030223;28;20125;-58
2022/07/22 14:30:09;;;;;;;1.50;0.35;;;;;;;;;;5032004;28;20434;-58
2022/07/22 14:32:35;;;;;;;0.57;0.40;;;;;;;;;;5031127;28;20033;-57
2022/07/22 14:35:01;;;;;;;0.75;0.30;;;;;;;;;;5027613;28;20100;-59
2022/07/22 14:37:27;;;;;;;1.00;0.50;;;;;;;;;;5026351;28;20531;-59